createdAt,value
2018-05-27T00:09:05.086Z,25.5
2018-05-27T00:19:04.305Z,25.5
2018-05-27T00:29:03.534Z,25.5
2018-05-27T00:39:03.050Z,25.5
2018-05-27T00:49:01.946Z,25.6
2018-05-27T00:59:01.755Z,25.5
2018-05-27T01:09:00.386Z,25.5
2018-05-27T01:18:59.960Z,25.5
2018-05-27T01:28:59.462Z,25.6
2018-05-27T01:38:58.424Z,25.6
2018-05-27T01:48:57.549Z,25.6
2018-05-27T01:58:56.492Z,25.5
2018-05-27T02:08:56.001Z,25.5
2018-05-27T02:18:55.232Z,25.5
2018-05-27T02:28:54.305Z,25.6
2018-05-27T02:38:53.975Z,25.6
2018-05-27T02:48:53.178Z,25.6
2018-05-27T02:58:52.190Z,25.6
2018-05-27T03:08:51.057Z,25.5
2018-05-27T03:18:50.502Z,25.5
2018-05-27T03:28:49.780Z,25.6
2018-05-27T03:38:48.694Z,25.5
2018-05-27T03:48:47.916Z,25.5
2018-05-27T03:58:48.303Z,25.5
2018-05-27T04:08:46.384Z,25.6
2018-05-27T04:18:45.565Z,25.5
2018-05-27T04:28:44.791Z,25.5
2018-05-27T04:38:44.877Z,25.5
2018-05-27T04:48:43.257Z,25.5
2018-05-27T04:58:42.481Z,25.5
2018-05-27T05:08:41.725Z,25.5
2018-05-27T05:18:40.897Z,25.5
2018-05-27T05:28:40.448Z,25.5
2018-05-27T05:38:39.768Z,25.5
2018-05-27T05:48:39.165Z,25.5
2018-05-27T05:58:37.783Z,25.5
2018-05-27T06:08:37.286Z,25.4
2018-05-27T06:18:36.795Z,25.4
2018-05-27T06:28:35.447Z,25.3
2018-05-27T06:38:34.995Z,25.3
2018-05-27T06:48:34.206Z,25.3
2018-05-27T06:58:33.705Z,25.3
2018-05-27T07:08:32.436Z,25.3
2018-05-27T07:18:31.597Z,25.2
2018-05-27T07:28:30.794Z,25.3
2018-05-27T07:38:30.117Z,25.2
2018-05-27T07:48:29.505Z,25.2
2018-05-27T07:58:29.350Z,25.3
2018-05-27T08:08:27.816Z,25.3
2018-05-27T08:18:26.932Z,25.3
2018-05-27T08:28:26.417Z,25.3
2018-05-27T08:38:25.399Z,25.3
2018-05-27T08:48:24.561Z,25.3
2018-05-27T08:58:24.066Z,25.3
2018-05-27T09:08:22.990Z,25.4
2018-05-27T09:18:22.603Z,25.4
2018-05-27T09:28:21.489Z,25.3
2018-05-27T09:38:20.682Z,25.4
2018-05-27T09:48:19.894Z,25.4
2018-05-27T09:58:19.102Z,25.4
2018-05-27T10:08:18.645Z,25.4
2018-05-27T10:18:18.150Z,25.4
2018-05-27T10:28:17.158Z,25.4
2018-05-27T10:38:15.998Z,25.4
2018-05-27T10:48:15.249Z,25.4
2018-05-27T10:58:14.435Z,25.4
2018-05-27T11:08:13.629Z,25.4
2018-05-27T11:18:12.875Z,25.4
2018-05-27T11:28:12.484Z,25.4
2018-05-27T11:38:11.623Z,25.5
2018-05-27T11:48:10.861Z,25.5
2018-05-27T11:58:09.767Z,25.5
2018-05-27T12:08:08.979Z,25.5
2018-05-27T12:18:08.348Z,25.4
2018-05-27T12:28:07.486Z,25.4
2018-05-27T12:38:06.941Z,25.5
2018-05-27T12:48:05.873Z,25.6
2018-05-27T12:58:05.090Z,25.5
2018-05-27T13:08:04.388Z,25.5
2018-05-27T13:18:03.572Z,25.5
2018-05-27T13:28:03.087Z,25.5
2018-05-27T13:38:02.914Z,25.5
2018-05-27T13:48:02.093Z,25.6
2018-05-27T13:58:00.516Z,25.6
2018-05-27T14:07:59.641Z,25.6
2018-05-27T14:17:58.986Z,25.6
2018-05-27T14:27:58.120Z,25.6
2018-05-27T14:37:57.317Z,25.6
2018-05-27T14:47:56.593Z,25.8
2018-05-27T14:57:55.800Z,25.8
2018-05-27T15:07:55.298Z,25.7
2018-05-27T15:17:54.535Z,25.6
2018-05-27T15:27:54.035Z,25.6
2018-05-27T15:37:52.778Z,25.6
2018-05-27T15:47:52.476Z,25.6
2018-05-27T15:57:51.738Z,25.7
2018-05-27T16:07:50.656Z,25.6
2018-05-27T16:17:49.632Z,25.6
2018-05-27T16:27:48.926Z,25.6
2018-05-27T16:37:48.057Z,25.7
2018-05-27T16:47:47.236Z,25.7
2018-05-27T16:57:46.844Z,25.7
2018-05-27T17:07:45.808Z,25.7
2018-05-27T17:17:45.504Z,25.7
2018-05-27T17:27:45.063Z,25.6
2018-05-27T17:37:43.928Z,25.5
2018-05-27T17:47:42.607Z,25.5
2018-05-27T17:57:41.820Z,25.4
2018-05-27T18:07:41.066Z,25.4
2018-05-27T18:17:40.389Z,25.5
2018-05-27T18:27:39.572Z,25.4
2018-05-27T18:37:38.984Z,25.4
2018-05-27T18:47:37.968Z,25.4
2018-05-27T18:57:38.053Z,25.4
2018-05-27T19:07:36.463Z,25.4
2018-05-27T19:17:35.593Z,25.4
2018-05-27T19:27:34.872Z,25.4
2018-05-27T19:37:34.084Z,25.4
2018-05-27T19:47:33.399Z,25.5
2018-05-27T19:57:32.536Z,26.1
2018-05-27T20:07:32.644Z,25.8
2018-05-27T20:17:30.933Z,25.6
2018-05-27T20:27:30.263Z,25.7
2018-05-27T20:37:30.253Z,25.7
2018-05-27T20:47:28.627Z,25.6
2018-05-27T20:57:27.966Z,25.6
2018-05-27T21:07:27.061Z,25.6
2018-05-27T21:17:26.358Z,25.7
2018-05-27T21:27:25.492Z,25.7
2018-05-27T21:37:25.026Z,25.8
2018-05-27T21:47:23.968Z,25.9
2018-05-27T21:57:23.172Z,25.6
2018-05-27T22:07:22.369Z,25.7
2018-05-27T22:17:21.611Z,25.9
2018-05-27T22:27:21.749Z,25.8
2018-05-27T22:37:20.361Z,25.8
2018-05-27T22:47:19.351Z,25.8
2018-05-27T22:57:18.493Z,25.7
2018-05-27T23:07:18.034Z,25.6
2018-05-27T23:17:17.068Z,25.8
2018-05-27T23:27:16.238Z,25.6
2018-05-27T23:37:15.686Z,25.6
2018-05-27T23:47:14.925Z,25.8
2018-05-27T23:57:13.823Z,25.7
